Time,TemperatureF,DewpointF,PressureIn,WindDirection,WindDirectionDegrees,WindSpeedMPH,WindSpeedGustMPH,Humidity,HourlyPrecipIn,Conditions,Clouds,dailyrainin,SoftwareType,DateUTC
2013-04-02 00:00:00,37.8,12.6,29.86,NNE,13,12.6,63.6,35,0.00,,---,0.00,VWS V14.01,2013-04-02 04:00:00,
2013-04-02 00:01:00,36.2,13.8,29.88,NNW,329,8.8,9.8,39,66.82,,---,0.00,VWS V14.01,2013-04-02 04:01:00,
2013-04-02 00:02:00,36.2,14.0,29.88,North,359,0.5,9.8,40,0.00,,---,0.00,VWS V14.01,2013-04-02 04:02:00,
2013-04-02 00:05:00,37.6,12.8,29.86,North,359,2.3,13.4,36,0.00,,---,0.00,VWS V14.01,2013-04-02 04:05:00,
2013-04-02 00:10:00,37.3,12.6,29.87,North,359,9.8,10.9,36,0.00,,---,0.00,VWS V14.01,2013-04-02 04:10:00,
2013-04-02 00:15:00,37.2,12.6,29.87,North,359,3.0,8.8,36,0.00,,---,0.00,VWS V14.01,2013-04-02 04:15:00,
2013-04-02 00:20:00,37.4,13.0,29.87,NE,39,8.1,10.5,36,0.00,,---,0.00,VWS V14.01,2013-04-02 04:20:00,
2013-04-02 00:25:00,37.2,13.3,29.87,North,359,3.0,8.7,37,0.00,,---,0.00,VWS V14.01,2013-04-02 04:25:00,
2013-04-02 00:30:00,37.7,13.7,29.87,NNW,343,9.1,12.2,37,0.00,,---,0.00,VWS V14.01,2013-04-02 04:30:00,
2013-04-02 00:35:00,37.1,13.7,29.87,NW,326,7.5,9.4,38,0.00,,---,0.00,VWS V14.01,2013-04-02 04:35:00,
2013-04-02 00:40:00,36.9,13.9,29.87,NW,305,7.8,7.8,38,0.00,,---,0.00,VWS V14.01,2013-04-02 04:40:00,
2013-04-02 00:45:00,37.0,13.9,29.87,NW,312,8.7,9.4,38,0.00,,---,0.00,VWS V14.01,2013-04-02 04:45:00,
2013-04-02 00:50:00,36.6,13.9,29.88,WNW,295,6.5,7.9,39,0.00,,---,0.00,VWS V14.01,2013-04-02 04:50:00,
2013-04-02 00:55:00,36.7,14.5,29.88,North,359,8.8,8.9,40,0.00,,---,0.00,VWS V14.01,2013-04-02 04:55:00,
2013-04-02 01:00:00,36.3,14.0,29.88,WSW,250,7.9,9.8,40,0.00,,---,0.00,VWS V14.01,2013-04-02 05:00:00,
2013-04-02 01:05:00,36.9,14.7,29.88,North,359,0.2,13.6,40,0.00,,---,0.00,VWS V14.01,2013-04-02 05:05:00,
2013-04-02 01:10:00,36.5,13.3,29.89,North,359,3.4,14.0,38,0.00,,---,0.00,VWS V14.01,2013-04-02 05:10:00,
2013-04-02 01:15:00,36.3,12.8,29.89,NNW,328,12.9,15.8,38,0.00,,---,0.00,VWS V14.01,2013-04-02 05:15:00,
2013-04-02 01:20:00,36.6,13.5,29.89,NW,318,9.3,15.8,38,0.00,,---,0.00,VWS V14.01,2013-04-02 05:20:00,
2013-04-02 01:25:00,35.8,13.4,29.89,NW,321,8.3,16.2,39,0.00,,---,0.00,VWS V14.01,2013-04-02 05:25:00,
2013-04-02 01:30:00,35.8,13.2,29.89,NW,318,8.5,16.8,39,0.00,,---,0.00,VWS V14.01,2013-04-02 05:30:00,
2013-04-02 01:35:00,35.8,13.7,29.89,WNW,297,7.9,16.8,40,0.00,,---,0.00,VWS V14.01,2013-04-02 05:35:00,
2013-04-02 01:40:00,35.6,13.6,29.89,NW,309,6.2,16.8,40,0.00,,---,0.00,VWS V14.01,2013-04-02 05:40:00,
2013-04-02 01:45:00,35.4,13.6,29.89,WNW,292,7.1,16.8,40,0.00,,---,0.00,VWS V14.01,2013-04-02 05:45:00,
2013-04-02 01:50:00,35.3,13.9,29.89,NW,314,4.5,16.8,41,0.00,,---,0.00,VWS V14.01,2013-04-02 05:50:00,
2013-04-02 01:52:00,34.1,14.9,29.89,NW,325,4.4,16.8,45,0.00,,---,0.00,VWS V14.01,2013-04-02 05:52:00,
2013-04-02 01:55:00,35.3,14.0,29.89,NW,309,2.2,16.8,41,0.00,,---,0.00,VWS V14.01,2013-04-02 05:55:00,
2013-04-02 02:00:00,35.0,14.1,29.89,NW,314,0.0,16.8,42,0.00,,---,0.00,VWS V14.01,2013-04-02 06:00:00,
2013-04-02 02:05:00,35.1,14.2,29.89,NNW,328,6.8,16.8,42,0.00,,---,0.00,VWS V14.01,2013-04-02 06:05:00,
2013-04-02 02:07:00,34.6,15.4,29.89,NNW,342,4.1,16.8,45,0.00,,---,0.00,VWS V14.01,2013-04-02 06:07:00,
2013-04-02 02:08:00,34.0,14.9,29.89,NNW,338,2.4,16.8,45,0.00,,---,0.00,VWS V14.01,2013-04-02 06:08:00,
2013-04-02 02:09:00,33.9,14.8,29.89,NNW,338,0.0,16.8,45,0.00,,---,0.00,VWS V14.01,2013-04-02 06:09:00,
2013-04-02 02:10:00,34.8,14.3,29.90,NW,307,5.3,16.8,42,0.00,,---,0.00,VWS V14.01,2013-04-02 06:10:00,
2013-04-02 02:15:00,34.3,14.0,29.89,NW,318,5.3,16.8,43,0.00,,---,0.00,VWS V14.01,2013-04-02 06:15:00,
2013-04-02 02:20:00,34.5,14.4,29.89,NW,311,7.0,16.8,43,0.00,,---,0.00,VWS V14.01,2013-04-02 06:20:00,
2013-04-02 02:25:00,34.8,14.6,29.89,NW,326,5.5,16.8,43,0.00,,---,0.00,VWS V14.01,2013-04-02 06:25:00,
2013-04-02 02:30:00,34.4,14.6,29.89,NNW,329,5.5,16.8,44,0.00,,---,0.00,VWS V14.01,2013-04-02 06:30:00,
2013-04-02 02:35:00,34.6,14.6,29.89,WNW,291,5.7,16.8,43,0.00,,---,0.00,VWS V14.01,2013-04-02 06:35:00,
2013-04-02 02:40:00,34.7,14.7,29.89,NNW,330,2.8,16.8,43,0.00,,---,0.00,VWS V14.01,2013-04-02 06:40:00,
2013-04-02 02:45:00,34.2,14.4,29.89,NNW,333,3.6,16.8,44,0.00,,---,0.00,VWS V14.01,2013-04-02 06:45:00,
2013-04-02 02:50:00,34.3,14.6,29.89,WNW,288,3.7,16.8,44,0.00,,---,0.00,VWS V14.01,2013-04-02 06:50:00,
2013-04-02 02:55:00,34.3,14.8,29.89,NW,325,0.9,16.8,44,0.00,,---,0.00,VWS V14.01,2013-04-02 06:55:00,
2013-04-02 03:00:00,34.0,14.6,29.89,NW,323,1.2,16.8,44,0.00,,---,0.00,VWS V14.01,2013-04-02 07:00:00,
2013-04-02 03:05:00,34.6,15.4,29.89,NW,309,3.2,16.8,45,0.00,,---,0.00,VWS V14.01,2013-04-02 07:05:00,
2013-04-02 03:10:00,33.8,14.7,29.89,WNW,292,3.2,16.8,45,0.00,,---,0.00,VWS V14.01,2013-04-02 07:10:00,
2013-04-02 03:15:00,33.6,14.5,29.89,WSW,239,5.5,16.8,45,0.00,,---,0.00,VWS V14.01,2013-04-02 07:15:00,
2013-04-02 03:20:00,33.4,14.6,29.89,NW,308,0.0,16.8,45,0.00,,---,0.00,VWS V14.01,2013-04-02 07:20:00,
2013-04-02 03:25:00,33.9,15.3,29.89,NW,308,0.0,16.8,46,0.00,,---,0.00,VWS V14.01,2013-04-02 07:25:00,
2013-04-02 03:30:00,33.3,14.7,29.89,NW,308,0.0,16.8,46,0.00,,---,0.00,VWS V14.01,2013-04-02 07:30:00,
2013-04-02 03:35:00,33.4,14.8,29.89,NW,308,0.0,16.8,46,0.00,,---,0.00,VWS V14.01,2013-04-02 07:35:00,
2013-04-02 03:40:00,32.9,14.1,29.89,NW,308,0.0,16.8,46,0.00,,---,0.00,VWS V14.01,2013-04-02 07:40:00,
2013-04-02 03:45:00,32.6,14.0,29.89,NW,308,0.0,16.8,46,0.00,,---,0.00,VWS V14.01,2013-04-02 07:45:00,
2013-04-02 03:50:00,32.9,14.7,29.89,NW,308,0.0,16.8,47,0.00,,---,0.00,VWS V14.01,2013-04-02 07:50:00,
2013-04-02 03:55:00,33.1,15.0,29.89,NW,308,0.0,16.8,47,0.00,,---,0.00,VWS V14.01,2013-04-02 07:55:00,
2013-04-02 04:00:00,32.7,14.8,29.89,NW,308,0.0,16.8,47,0.00,,---,0.00,VWS V14.01,2013-04-02 08:00:00,
2013-04-02 04:05:00,31.9,14.4,29.89,NW,308,0.0,16.8,48,0.00,,---,0.00,VWS V14.01,2013-04-02 08:05:00,
2013-04-02 04:10:00,32.1,15.0,29.89,NW,308,0.0,16.8,49,0.00,,---,0.00,VWS V14.01,2013-04-02 08:10:00,
2013-04-02 04:15:00,31.8,14.9,29.89,NW,308,0.0,16.8,49,0.00,,---,0.00,VWS V14.01,2013-04-02 08:15:00,
2013-04-02 04:20:00,32.1,15.3,29.89,NW,308,0.0,16.8,50,0.00,,---,0.00,VWS V14.01,2013-04-02 08:20:00,
2013-04-02 04:25:00,31.8,15.2,29.89,NW,308,0.0,16.8,50,0.00,,---,0.00,VWS V14.01,2013-04-02 08:25:00,
2013-04-02 04:30:00,32.0,15.5,29.89,NW,308,0.0,16.8,50,0.00,,---,0.00,VWS V14.01,2013-04-02 08:30:00,
2013-04-02 04:35:00,31.4,15.1,29.89,NW,308,0.0,16.8,50,0.00,,---,0.00,VWS V14.01,2013-04-02 08:35:00,
2013-04-02 04:40:00,31.6,15.3,29.90,NW,308,0.0,16.8,50,0.00,,---,0.00,VWS V14.01,2013-04-02 08:40:00,
2013-04-02 04:45:00,31.7,15.5,29.90,NW,308,0.0,16.8,51,0.00,,---,0.00,VWS V14.01,2013-04-02 08:45:00,
2013-04-02 04:50:00,31.5,15.2,29.89,NW,308,0.0,16.8,50,0.00,,---,0.00,VWS V14.01,2013-04-02 08:50:00,
2013-04-02 04:55:00,31.5,15.3,29.90,NW,308,0.0,16.8,51,0.00,,---,0.00,VWS V14.01,2013-04-02 08:55:00,
2013-04-02 05:00:00,31.0,15.1,29.90,NW,308,0.0,16.8,51,0.00,,---,0.00,VWS V14.01,2013-04-02 09:00:00,
2013-04-02 05:05:00,31.0,15.4,29.90,NW,308,0.0,16.8,52,0.00,,---,0.00,VWS V14.01,2013-04-02 09:05:00,
2013-04-02 05:10:00,31.0,15.8,29.90,NW,308,0.0,16.8,53,0.00,,---,0.00,VWS V14.01,2013-04-02 09:10:00,
2013-04-02 05:15:00,31.1,15.9,29.90,NW,308,0.0,16.8,53,0.00,,---,0.00,VWS V14.01,2013-04-02 09:15:00,
2013-04-02 05:20:00,31.0,16.3,29.90,NW,308,0.0,16.8,54,0.00,,---,0.00,VWS V14.01,2013-04-02 09:20:00,
2013-04-02 05:25:00,30.8,16.4,29.91,South,173,1.6,16.8,55,0.00,,---,0.00,VWS V14.01,2013-04-02 09:25:00,
2013-04-02 05:29:00,30.8,16.4,29.91,North,359,0.0,16.8,55,0.00,,---,0.00,VWS V14.01,2013-04-02 09:29:00,
2013-04-02 05:30:00,32.5,15.3,29.93,NW,307,3.8,16.8,49,0.00,,---,0.00,VWS V14.01,2013-04-02 09:30:00,
2013-04-02 05:31:00,31.8,14.7,29.93,NNW,330,2.8,16.8,49,0.00,,---,0.00,VWS V14.01,2013-04-02 09:31:00,
2013-04-02 05:34:00,31.0,16.3,29.91,North,359,0.0,16.8,54,0.00,,---,0.00,VWS V14.01,2013-04-02 09:34:00,
2013-04-02 05:39:00,31.0,15.4,29.91,North,359,0.0,16.8,52,0.00,,---,0.00,VWS V14.01,2013-04-02 09:39:00,
2013-04-02 05:44:00,31.3,15.1,29.92,NW,319,3.3,16.8,51,0.00,,---,0.00,VWS V14.01,2013-04-02 09:44:00,
2013-04-02 05:49:00,31.9,15.1,29.92,NW,325,6.5,16.8,49,0.00,,---,0.00,VWS V14.01,2013-04-02 09:49:00,
2013-04-02 05:54:00,32.1,14.7,29.92,NW,312,5.8,16.8,48,0.00,,---,0.00,VWS V14.01,2013-04-02 09:54:00,
2013-04-02 05:59:00,32.2,14.8,29.92,WNW,285,3.3,16.8,48,0.00,,---,0.00,VWS V14.01,2013-04-02 09:59:00,
2013-04-02 06:04:00,32.2,14.7,29.92,NW,323,3.7,16.8,48,0.00,,---,0.00,VWS V14.01,2013-04-02 10:04:00,
2013-04-02 06:09:00,32.7,15.2,29.92,North,352,2.6,16.8,48,0.00,,---,0.00,VWS V14.01,2013-04-02 10:09:00,
2013-04-02 06:14:00,32.2,14.8,29.92,NNW,338,5.0,16.8,48,0.00,,---,0.00,VWS V14.01,2013-04-02 10:14:00,
2013-04-02 06:19:00,31.9,14.5,29.92,NNW,339,3.0,16.8,48,0.00,,---,0.00,VWS V14.01,2013-04-02 10:19:00,
2013-04-02 06:24:00,32.0,14.7,29.93,NW,326,4.2,16.8,48,0.00,,---,0.00,VWS V14.01,2013-04-02 10:24:00,
2013-04-02 06:29:00,31.8,14.7,29.93,North,350,3.7,16.8,49,0.00,,---,0.00,VWS V14.01,2013-04-02 10:29:00,
2013-04-02 06:34:00,32.3,15.1,29.93,NW,325,7.3,16.8,49,0.00,,---,0.00,VWS V14.01,2013-04-02 10:34:00,
2013-04-02 06:39:00,31.8,14.6,29.93,NW,318,6.5,16.8,48,0.00,,---,0.00,VWS V14.01,2013-04-02 10:39:00,
2013-04-02 06:44:00,32.0,14.6,29.94,NNW,333,3.5,16.8,48,0.00,,---,0.00,VWS V14.01,2013-04-02 10:44:00,
2013-04-02 06:49:00,32.3,14.6,29.94,North,359,3.2,16.8,48,0.00,,---,0.00,VWS V14.01,2013-04-02 10:49:00,
2013-04-02 06:54:00,31.4,13.8,29.94,North,359,6.6,16.8,48,0.00,,---,0.00,VWS V14.01,2013-04-02 10:54:00,
2013-04-02 06:59:00,32.2,14.5,29.94,North,359,2.3,16.8,48,0.00,,---,0.00,VWS V14.01,2013-04-02 10:59:00,
2013-04-02 07:04:00,31.9,14.3,29.94,NW,314,6.6,16.8,48,0.00,,---,0.00,VWS V14.01,2013-04-02 11:04:00,
2013-04-02 07:09:00,32.2,14.5,29.94,WNW,297,4.5,16.8,48,0.00,,---,0.00,VWS V14.01,2013-04-02 11:09:00,
2013-04-02 07:14:00,32.1,14.4,29.94,WNW,291,4.9,16.8,48,0.00,,---,0.00,VWS V14.01,2013-04-02 11:14:00,
2013-04-02 07:19:00,32.3,14.8,29.95,WNW,292,0.0,16.8,48,0.00,,---,0.00,VWS V14.01,2013-04-02 11:19:00,
2013-04-02 07:24:00,31.8,14.2,29.95,NW,307,4.2,16.8,48,0.00,,---,0.00,VWS V14.01,2013-04-02 11:24:00,
2013-04-02 07:29:00,31.9,14.3,29.95,WNW,291,2.8,16.8,48,0.00,,---,0.00,VWS V14.01,2013-04-02 11:29:00,
2013-04-02 07:34:00,32.7,15.0,29.95,WNW,302,0.0,16.8,48,0.00,,---,0.00,VWS V14.01,2013-04-02 11:34:00,
2013-04-02 07:39:00,32.5,14.9,29.95,NW,311,0.0,16.8,48,0.00,,---,0.00,VWS V14.01,2013-04-02 11:39:00,
2013-04-02 07:44:00,33.0,15.3,29.95,WSW,252,0.0,16.8,48,0.00,,---,0.00,VWS V14.01,2013-04-02 11:44:00,
2013-04-02 07:49:00,33.5,15.8,29.95,West,263,2.2,16.8,48,0.00,,---,0.00,VWS V14.01,2013-04-02 11:49:00,
2013-04-02 07:54:00,32.9,15.1,29.96,WNW,287,2.9,16.8,48,0.00,,---,0.00,VWS V14.01,2013-04-02 11:54:00,
2013-04-02 07:59:00,33.7,15.6,29.96,NW,312,4.7,16.8,47,0.00,,---,0.00,VWS V14.01,2013-04-02 11:59:00,
2013-04-02 08:04:00,33.9,15.7,29.96,WNW,283,2.3,16.8,47,0.00,,---,0.00,VWS V14.01,2013-04-02 12:04:00,
2013-04-02 08:09:00,33.8,15.5,29.96,NW,309,7.5,16.8,46,0.00,,---,0.00,VWS V14.01,2013-04-02 12:09:00,
2013-04-02 08:14:00,34.2,15.2,29.96,WNW,292,6.3,16.8,45,0.00,,---,0.00,VWS V14.01,2013-04-02 12:14:00,
2013-04-02 08:19:00,34.1,14.7,29.96,WSW,238,4.2,16.8,44,0.00,,---,0.00,VWS V14.01,2013-04-02 12:19:00,
2013-04-02 08:24:00,34.2,14.8,29.96,NW,314,8.3,16.8,44,0.00,,---,0.00,VWS V14.01,2013-04-02 12:24:00,
2013-04-02 08:29:00,34.4,14.8,29.96,NW,312,7.5,16.8,44,0.00,,---,0.00,VWS V14.01,2013-04-02 12:29:00,
2013-04-02 08:34:00,34.6,14.6,29.96,WNW,298,7.6,16.8,43,0.00,,---,0.00,VWS V14.01,2013-04-02 12:34:00,
2013-04-02 08:39:00,34.9,15.0,29.96,West,271,9.3,16.8,44,0.00,,---,0.00,VWS V14.01,2013-04-02 12:39:00,
2013-04-02 08:44:00,34.6,15.6,29.97,WNW,292,9.7,16.8,45,0.00,,---,0.00,VWS V14.01,2013-04-02 12:44:00,
2013-04-02 08:49:00,35.1,16.1,29.96,West,267,8.6,16.8,45,0.00,,---,0.00,VWS V14.01,2013-04-02 12:49:00,
2013-04-02 08:54:00,35.2,15.8,29.96,West,276,7.0,16.8,44,0.00,,---,0.00,VWS V14.01,2013-04-02 12:54:00,
2013-04-02 08:59:00,35.5,16.0,29.96,West,266,5.3,16.8,44,0.00,,---,0.00,VWS V14.01,2013-04-02 12:59:00,
2013-04-02 09:04:00,35.4,15.8,29.95,NW,322,1.9,18.6,44,0.00,,---,0.00,VWS V14.01,2013-04-02 13:04:00,
2013-04-02 09:09:00,35.3,15.2,29.95,North,359,8.4,18.6,43,0.00,,---,0.00,VWS V14.01,2013-04-02 13:09:00,
2013-04-02 09:14:00,34.8,14.4,29.95,North,359,7.8,19.0,43,0.00,,---,0.00,VWS V14.01,2013-04-02 13:14:00,
2013-04-02 09:19:00,35.3,15.2,29.95,North,359,0.8,19.0,43,0.00,,---,0.00,VWS V14.01,2013-04-02 13:19:00,
2013-04-02 09:24:00,35.9,15.7,29.95,North,359,0.6,19.0,43,0.00,,---,0.00,VWS V14.01,2013-04-02 13:24:00,
2013-04-02 09:29:00,35.9,15.9,29.95,North,359,0.0,19.0,44,0.00,,---,0.00,VWS V14.01,2013-04-02 13:29:00,
2013-04-02 09:34:00,35.7,14.9,29.95,North,359,0.4,19.0,42,0.00,,---,0.00,VWS V14.01,2013-04-02 13:34:00,
2013-04-02 09:39:00,35.4,14.8,29.95,NW,323,2.4,19.5,42,0.00,,---,0.00,VWS V14.01,2013-04-02 13:39:00,
2013-04-02 09:44:00,36.2,15.5,29.95,North,359,0.0,19.5,42,0.00,,---,0.00,VWS V14.01,2013-04-02 13:44:00,
2013-04-02 09:49:00,35.8,14.8,29.96,North,359,0.4,19.5,42,0.00,,---,0.00,VWS V14.01,2013-04-02 13:49:00,
2013-04-02 09:54:00,36.0,15.9,29.96,North,359,0.2,19.5,43,0.00,,---,0.00,VWS V14.01,2013-04-02 13:54:00,
2013-04-02 09:59:00,35.6,13.7,29.96,North,359,1.7,19.6,40,0.00,,---,0.00,VWS V14.01,2013-04-02 13:59:00,
2013-04-02 10:04:00,35.5,14.4,29.96,North,359,5.1,21.8,41,0.00,,---,0.00,VWS V14.01,2013-04-02 14:04:00,
2013-04-02 10:09:00,35.7,14.8,29.96,North,359,1.7,22.1,42,0.00,,---,0.00,VWS V14.01,2013-04-02 14:09:00,
2013-04-02 10:14:00,35.9,14.8,29.96,North,359,8.3,22.1,42,0.00,,---,0.00,VWS V14.01,2013-04-02 14:14:00,
2013-04-02 10:19:00,36.4,15.2,29.96,West,263,15.9,22.1,42,0.00,,---,0.00,VWS V14.01,2013-04-02 14:19:00,
2013-04-02 10:24:00,35.9,14.3,29.96,North,359,0.5,24.2,41,0.00,,---,0.00,VWS V14.01,2013-04-02 14:24:00,
2013-04-02 10:29:00,35.5,14.3,29.96,North,4,2.1,24.2,41,0.00,,---,0.00,VWS V14.01,2013-04-02 14:29:00,
2013-04-02 10:34:00,35.9,15.0,29.96,South,173,15.9,24.2,42,0.00,,---,0.00,VWS V14.01,2013-04-02 14:34:00,
2013-04-02 10:39:00,36.5,15.3,29.96,NNW,336,5.1,24.2,41,0.00,,---,0.00,VWS V14.01,2013-04-02 14:39:00,
2013-04-02 10:44:00,35.7,12.8,29.96,North,359,10.9,24.2,38,0.00,,---,0.00,VWS V14.01,2013-04-02 14:44:00,
2013-04-02 10:49:00,36.8,14.5,29.96,North,359,0.0,24.2,40,0.00,,---,0.00,VWS V14.01,2013-04-02 14:49:00,
2013-04-02 10:54:00,36.8,13.8,29.96,North,359,1.1,24.2,38,0.00,,---,0.00,VWS V14.01,2013-04-02 14:54:00,
2013-04-02 10:59:00,36.4,13.4,29.96,North,359,0.0,24.2,38,0.00,,---,0.00,VWS V14.01,2013-04-02 14:59:00,
2013-04-02 11:04:00,36.5,14.1,29.96,North,359,0.0,24.2,39,0.00,,---,0.00,VWS V14.01,2013-04-02 15:04:00,
2013-04-02 11:09:00,37.1,14.2,29.95,North,359,1.3,24.2,38,0.00,,---,0.00,VWS V14.01,2013-04-02 15:09:00,
2013-04-02 11:14:00,36.8,14.1,29.96,North,359,0.4,24.2,39,0.00,,---,0.00,VWS V14.01,2013-04-02 15:14:00,
2013-04-02 11:19:00,36.9,14.1,29.95,North,359,0.0,24.2,39,0.00,,---,0.00,VWS V14.01,2013-04-02 15:19:00,
2013-04-02 11:24:00,36.9,14.4,29.96,North,359,0.0,24.2,39,0.00,,---,0.00,VWS V14.01,2013-04-02 15:24:00,
2013-04-02 11:29:00,37.1,14.4,29.96,North,359,0.4,24.2,39,0.00,,---,0.00,VWS V14.01,2013-04-02 15:29:00,
2013-04-02 11:34:00,37.2,13.6,29.96,North,359,3.4,24.2,38,0.00,,---,0.00,VWS V14.01,2013-04-02 15:34:00,
2013-04-02 11:39:00,36.1,12.8,29.96,North,359,4.8,24.2,38,0.00,,---,0.00,VWS V14.01,2013-04-02 15:39:00,
2013-04-02 11:44:00,37.4,14.5,29.95,North,359,0.2,24.2,39,0.00,,---,0.00,VWS V14.01,2013-04-02 15:44:00,
2013-04-02 11:49:00,37.0,14.1,29.96,North,359,0.9,24.2,39,0.00,,---,0.00,VWS V14.01,2013-04-02 15:49:00,
2013-04-02 11:54:00,37.1,13.7,29.96,North,359,1.2,24.2,38,0.00,,---,0.00,VWS V14.01,2013-04-02 15:54:00,
2013-04-02 11:59:00,37.4,12.5,29.95,North,359,0.0,24.2,35,0.00,,---,0.00,VWS V14.01,2013-04-02 15:59:00,
2013-04-02 12:04:00,37.6,12.0,29.95,North,359,0.0,24.2,34,0.00,,---,0.00,VWS V14.01,2013-04-02 16:04:00,
2013-04-02 12:09:00,37.8,12.6,29.95,North,359,1.1,24.2,35,0.00,,---,0.00,VWS V14.01,2013-04-02 16:09:00,
2013-04-02 12:14:00,37.9,13.0,29.95,North,359,0.2,24.2,35,0.00,,---,0.00,VWS V14.01,2013-04-02 16:14:00,
2013-04-02 12:19:00,38.2,12.6,29.95,North,359,0.4,24.2,34,0.00,,---,0.00,VWS V14.01,2013-04-02 16:19:00,
2013-04-02 12:24:00,38.3,13.8,29.95,North,359,0.0,24.2,36,0.00,,---,0.00,VWS V14.01,2013-04-02 16:24:00,
2013-04-02 12:29:00,38.4,12.8,29.95,North,359,0.0,24.2,34,0.00,,---,0.00,VWS V14.01,2013-04-02 16:29:00,
2013-04-02 12:34:00,38.5,12.7,29.95,North,359,0.9,24.2,34,0.00,,---,0.00,VWS V14.01,2013-04-02 16:34:00,
2013-04-02 12:39:00,38.1,12.8,29.95,North,359,5.8,24.2,35,0.00,,---,0.00,VWS V14.01,2013-04-02 16:39:00,
2013-04-02 12:44:00,38.2,15.1,29.95,North,359,0.4,24.2,38,0.00,,---,0.00,VWS V14.01,2013-04-02 16:44:00,
2013-04-02 12:49:00,38.2,12.6,29.95,North,359,2.5,24.2,34,0.00,,---,0.00,VWS V14.01,2013-04-02 16:49:00,
2013-04-02 12:54:00,39.4,14.5,29.94,North,359,7.5,24.2,36,0.00,,---,0.00,VWS V14.01,2013-04-02 16:54:00,
2013-04-02 12:59:00,39.5,13.4,29.95,North,359,0.6,24.2,34,0.00,,---,0.00,VWS V14.01,2013-04-02 16:59:00,
2013-04-02 13:04:00,38.1,10.0,29.95,North,359,12.4,24.2,31,0.00,,---,0.00,VWS V14.01,2013-04-02 17:04:00,
2013-04-02 13:09:00,39.3,12.9,29.94,North,359,0.5,24.2,33,0.00,,---,0.00,VWS V14.01,2013-04-02 17:09:00,
2013-04-02 13:14:00,38.7,11.6,29.94,North,359,0.2,24.2,32,0.00,,---,0.00,VWS V14.01,2013-04-02 17:14:00,
2013-04-02 13:19:00,40.0,13.6,29.94,North,357,1.7,24.2,34,0.00,,---,0.00,VWS V14.01,2013-04-02 17:19:00,
2013-04-02 13:24:00,39.3,12.3,29.94,North,359,2.1,24.2,32,0.00,,---,0.00,VWS V14.01,2013-04-02 17:24:00,
2013-04-02 13:29:00,38.6,12.0,29.94,North,359,1.5,24.2,33,0.00,,---,0.00,VWS V14.01,2013-04-02 17:29:00,
2013-04-02 13:34:00,39.2,13.5,29.94,North,359,0.0,24.2,34,0.00,,---,0.00,VWS V14.01,2013-04-02 17:34:00,
2013-04-02 13:39:00,39.0,12.4,29.94,North,359,4.0,24.2,33,0.00,,---,0.00,VWS V14.01,2013-04-02 17:39:00,
2013-04-02 13:44:00,38.7,11.6,29.94,North,359,1.2,24.2,32,0.00,,---,0.00,VWS V14.01,2013-04-02 17:44:00,
2013-04-02 13:49:00,38.6,11.7,29.94,North,359,0.2,24.2,33,0.00,,---,0.00,VWS V14.01,2013-04-02 17:49:00,
2013-04-02 13:54:00,38.8,12.2,29.93,North,359,0.0,24.2,33,0.00,,---,0.00,VWS V14.01,2013-04-02 17:54:00,
2013-04-02 13:59:00,39.2,12.7,29.93,North,359,0.0,24.2,33,0.00,,---,0.00,VWS V14.01,2013-04-02 17:59:00,
2013-04-02 14:04:00,38.5,12.3,29.94,North,359,4.5,24.2,34,0.00,,---,0.00,VWS V14.01,2013-04-02 18:04:00,
2013-04-02 14:09:00,38.8,12.4,29.93,North,359,0.2,24.2,33,0.00,,---,0.00,VWS V14.01,2013-04-02 18:09:00,
2013-04-02 14:14:00,38.9,13.7,29.93,North,359,0.0,24.2,35,0.00,,---,0.00,VWS V14.01,2013-04-02 18:14:00,
2013-04-02 14:19:00,39.6,12.1,29.93,North,359,2.9,24.2,32,0.00,,---,0.00,VWS V14.01,2013-04-02 18:19:00,
2013-04-02 14:24:00,40.4,14.5,29.93,North,359,8.9,24.2,34,0.00,,---,0.00,VWS V14.01,2013-04-02 18:24:00,
2013-04-02 14:29:00,40.2,13.8,29.93,North,359,1.4,24.2,34,0.00,,---,0.00,VWS V14.01,2013-04-02 18:29:00,
2013-04-02 14:34:00,40.1,13.6,29.93,North,359,1.3,24.2,33,0.00,,---,0.00,VWS V14.01,2013-04-02 18:34:00,
2013-04-02 14:39:00,39.1,12.4,29.93,North,359,1.2,24.2,33,0.00,,---,0.00,VWS V14.01,2013-04-02 18:39:00,
2013-04-02 14:44:00,40.2,12.0,29.93,North,359,5.8,24.2,31,0.00,,---,0.00,VWS V14.01,2013-04-02 18:44:00,
2013-04-02 14:49:00,39.8,13.7,29.92,North,359,3.9,24.2,34,0.00,,---,0.00,VWS V14.01,2013-04-02 18:49:00,
2013-04-02 14:54:00,40.1,12.0,29.93,North,359,1.7,24.2,31,0.00,,---,0.00,VWS V14.01,2013-04-02 18:54:00,
2013-04-02 14:59:00,40.5,12.3,29.93,North,359,2.6,24.2,31,0.00,,---,0.00,VWS V14.01,2013-04-02 18:59:00,
2013-04-02 15:04:00,40.2,12.9,29.92,North,359,1.7,24.2,32,0.00,,---,0.00,VWS V14.01,2013-04-02 19:04:00,
2013-04-02 15:09:00,39.7,11.3,29.92,North,359,0.0,24.2,31,0.00,,---,0.00,VWS V14.01,2013-04-02 19:09:00,
2013-04-02 15:14:00,39.7,11.8,29.92,North,359,0.2,24.2,31,0.00,,---,0.00,VWS V14.01,2013-04-02 19:14:00,
2013-04-02 15:19:00,40.6,13.7,29.93,North,359,2.5,24.2,33,0.00,,---,0.00,VWS V14.01,2013-04-02 19:19:00,
2013-04-02 15:24:00,40.8,12.5,29.92,North,359,3.5,24.2,31,0.00,,---,0.00,VWS V14.01,2013-04-02 19:24:00,
2013-04-02 15:29:00,40.1,12.5,29.92,North,359,13.2,24.2,32,0.00,,---,0.00,VWS V14.01,2013-04-02 19:29:00,
2013-04-02 15:35:00,39.8,10.6,29.92,North,359,13.5,24.2,30,0.00,,---,0.00,VWS V14.01,2013-04-02 19:35:00,
2013-04-02 15:40:00,40.3,11.1,29.92,North,359,0.0,24.2,30,0.00,,---,0.00,VWS V14.01,2013-04-02 19:40:00,
2013-04-02 15:45:00,40.5,11.1,29.92,North,359,1.7,24.2,30,0.00,,---,0.00,VWS V14.01,2013-04-02 19:45:00,
2013-04-02 15:50:00,41.0,14.5,29.92,North,359,1.1,24.2,34,0.00,,---,0.00,VWS V14.01,2013-04-02 19:50:00,
2013-04-02 15:54:00,40.8,11.3,29.92,North,359,0.8,24.2,29,0.00,,---,0.00,VWS V14.01,2013-04-02 19:54:00,
2013-04-02 16:00:00,40.9,12.7,29.92,North,359,1.4,24.2,31,0.00,,---,0.00,VWS V14.01,2013-04-02 20:00:00,
2013-04-02 16:05:00,40.4,11.0,29.92,North,359,2.2,24.2,29,0.00,,---,0.00,VWS V14.01,2013-04-02 20:05:00,
2013-04-02 16:10:00,41.2,12.1,29.92,North,359,0.0,24.2,30,0.00,,---,0.00,VWS V14.01,2013-04-02 20:10:00,
2013-04-02 16:15:00,41.0,12.6,29.92,WSW,253,2.6,24.2,31,0.00,,---,0.00,VWS V14.01,2013-04-02 20:15:00,
2013-04-02 16:20:00,41.3,11.8,29.92,North,359,1.9,24.2,30,0.00,,---,0.00,VWS V14.01,2013-04-02 20:20:00,
2013-04-02 16:25:00,41.0,11.1,29.92,North,359,0.0,24.2,29,0.00,,---,0.00,VWS V14.01,2013-04-02 20:25:00,
2013-04-02 16:30:00,41.7,12.0,29.92,North,359,0.2,24.2,29,0.00,,---,0.00,VWS V14.01,2013-04-02 20:30:00,
2013-04-02 16:35:00,41.0,11.1,29.92,North,359,0.2,24.2,29,0.00,,---,0.00,VWS V14.01,2013-04-02 20:35:00,
2013-04-02 16:40:00,41.2,10.9,29.92,North,359,0.0,24.2,28,0.00,,---,0.00,VWS V14.01,2013-04-02 20:40:00,
2013-04-02 16:45:00,41.4,11.1,29.92,North,359,0.7,24.2,28,0.00,,---,0.00,VWS V14.01,2013-04-02 20:45:00,
2013-04-02 16:50:00,41.1,11.4,29.92,West,280,2.4,24.2,29,0.00,,---,0.00,VWS V14.01,2013-04-02 20:50:00,
2013-04-02 16:55:00,40.8,11.2,29.92,North,359,1.5,24.2,29,0.00,,---,0.00,VWS V14.01,2013-04-02 20:55:00,
2013-04-02 17:00:00,41.4,11.9,29.93,North,359,15.7,24.2,29,0.00,,---,0.00,VWS V14.01,2013-04-02 21:00:00,
2013-04-02 17:05:00,41.0,11.6,29.92,North,359,7.6,24.2,30,0.00,,---,0.00,VWS V14.01,2013-04-02 21:05:00,
2013-04-02 17:10:00,41.0,11.0,29.92,NW,322,13.4,24.2,29,0.00,,---,0.00,VWS V14.01,2013-04-02 21:10:00,
2013-04-02 17:15:00,41.4,11.7,29.93,SSE,162,17.3,24.2,29,0.00,,---,0.00,VWS V14.01,2013-04-02 21:15:00,
2013-04-02 17:20:00,41.2,11.1,29.93,North,359,2.7,24.2,29,0.00,,---,0.00,VWS V14.01,2013-04-02 21:20:00,
2013-04-02 17:25:00,41.3,10.8,29.93,WNW,283,19.8,24.2,28,0.00,,---,0.00,VWS V14.01,2013-04-02 21:25:00,
2013-04-02 17:30:00,41.3,10.4,29.93,West,270,19.7,26.9,28,0.00,,---,0.00,VWS V14.01,2013-04-02 21:30:00,
2013-04-02 17:35:00,41.2,10.6,29.93,NW,326,14.4,26.9,28,0.00,,---,0.00,VWS V14.01,2013-04-02 21:35:00,
2013-04-02 17:40:00,41.2,11.1,29.93,NNW,345,6.5,26.9,29,0.00,,---,0.00,VWS V14.01,2013-04-02 21:40:00,
2013-04-02 17:45:00,42.2,12.6,29.93,WSW,253,15.5,26.9,29,0.00,,---,0.00,VWS V14.01,2013-04-02 21:45:00,
2013-04-02 17:50:00,41.6,11.5,29.94,WSW,257,15.6,26.9,29,0.00,,---,0.00,VWS V14.01,2013-04-02 21:50:00,
2013-04-02 17:55:00,41.4,11.0,29.95,SW,233,0.9,26.9,28,0.00,,---,0.00,VWS V14.01,2013-04-02 21:55:00,
2013-04-02 18:00:00,41.1,10.2,29.95,North,359,2.5,28.1,28,0.00,,---,0.00,VWS V14.01,2013-04-02 22:00:00,
2013-04-02 18:05:00,40.9,10.9,29.94,North,359,3.3,28.1,29,0.00,,---,0.00,VWS V14.01,2013-04-02 22:05:00,
2013-04-02 18:10:00,41.3,11.2,29.95,North,359,0.4,28.1,29,0.00,,---,0.00,VWS V14.01,2013-04-02 22:10:00,
2013-04-02 18:15:00,41.7,12.0,29.95,North,359,4.5,28.1,29,0.00,,---,0.00,VWS V14.01,2013-04-02 22:15:00,
2013-04-02 18:20:00,41.9,11.7,29.95,SSW,193,0.9,28.1,29,0.00,,---,0.00,VWS V14.01,2013-04-02 22:20:00,
2013-04-02 18:25:00,41.0,10.6,29.95,WNW,300,8.3,28.1,28,0.00,,---,0.00,VWS V14.01,2013-04-02 22:25:00,
2013-04-02 18:30:00,41.6,11.2,29.95,West,273,12.7,28.1,28,0.00,,---,0.00,VWS V14.01,2013-04-02 22:30:00,
2013-04-02 18:35:00,40.8,10.7,29.95,North,359,11.7,28.1,29,0.00,,---,0.00,VWS V14.01,2013-04-02 22:35:00,
2013-04-02 18:40:00,41.1,10.9,29.96,North,359,15.8,28.1,28,0.00,,---,0.00,VWS V14.01,2013-04-02 22:40:00,
2013-04-02 18:45:00,41.3,11.7,29.96,WNW,291,7.4,28.1,29,0.00,,---,0.00,VWS V14.01,2013-04-02 22:45:00,
2013-04-02 18:50:00,41.0,11.4,29.95,WNW,294,12.0,28.1,29,0.00,,---,0.00,VWS V14.01,2013-04-02 22:50:00,
2013-04-02 18:55:00,41.2,11.8,29.96,WSW,246,10.6,28.1,30,0.00,,---,0.00,VWS V14.01,2013-04-02 22:55:00,
2013-04-02 19:01:00,41.2,11.5,29.96,WNW,290,6.5,28.1,29,0.00,,---,0.00,VWS V14.01,2013-04-02 23:01:00,
2013-04-02 19:06:00,41.0,11.3,29.96,WNW,291,13.3,28.1,29,0.00,,---,0.00,VWS V14.01,2013-04-02 23:06:00,
2013-04-02 19:08:00,39.3,11.4,29.97,NW,307,7.5,28.1,31,0.00,,---,0.00,VWS V14.01,2013-04-02 23:08:00,
2013-04-02 19:09:00,39.9,11.7,29.98,West,267,6.8,28.1,31,0.00,,---,0.00,VWS V14.01,2013-04-02 23:09:00,
2013-04-02 19:10:00,39.6,12.0,29.98,NW,307,4.3,28.1,32,0.00,,---,0.00,VWS V14.01,2013-04-02 23:10:00,
2013-04-02 19:11:00,41.3,11.5,29.96,West,267,12.4,28.1,29,0.00,,---,0.00,VWS V14.01,2013-04-02 23:11:00,
2013-04-02 19:16:00,40.8,11.4,29.96,WNW,291,7.3,28.1,30,0.00,,---,0.00,VWS V14.01,2013-04-02 23:16:00,
2013-04-02 19:21:00,40.6,11.5,29.97,West,266,8.0,28.1,30,0.00,,---,0.00,VWS V14.01,2013-04-02 23:21:00,
2013-04-02 19:27:00,41.2,12.1,29.97,West,277,10.6,28.1,30,0.00,,---,0.00,VWS V14.01,2013-04-02 23:27:00,
2013-04-02 19:32:00,40.3,11.4,29.97,WNW,291,7.5,28.1,30,0.00,,---,0.00,VWS V14.01,2013-04-02 23:32:00,
2013-04-02 19:37:00,39.6,10.6,29.97,WNW,295,7.5,28.1,30,0.00,,---,0.00,VWS V14.01,2013-04-02 23:37:00,
2013-04-02 19:42:00,40.9,11.8,29.97,West,262,9.2,28.1,30,0.00,,---,0.00,VWS V14.01,2013-04-02 23:42:00,
2013-04-02 19:47:00,40.6,11.7,29.98,West,270,11.1,28.1,30,0.00,,---,0.00,VWS V14.01,2013-04-02 23:47:00,
2013-04-02 19:52:00,40.3,11.9,29.97,West,278,6.6,28.1,31,0.00,,---,0.00,VWS V14.01,2013-04-02 23:52:00,
2013-04-02 19:57:00,39.9,11.9,29.97,WNW,298,3.4,28.1,31,0.00,,---,0.00,VWS V14.01,2013-04-02 23:57:00,
2013-04-02 20:02:00,39.7,12.0,29.97,West,278,6.6,28.1,32,0.00,,---,0.00,VWS V14.01,2013-04-03 00:02:00,
2013-04-02 20:07:00,40.0,12.3,29.98,NW,315,4.5,28.1,32,0.00,,---,0.00,VWS V14.01,2013-04-03 00:07:00,
2013-04-02 20:12:00,39.3,11.6,29.98,West,266,9.1,28.1,32,0.00,,---,0.00,VWS V14.01,2013-04-03 00:12:00,
2013-04-02 20:17:00,40.2,12.6,29.98,WNW,285,6.9,28.1,32,0.00,,---,0.00,VWS V14.01,2013-04-03 00:17:00,
2013-04-02 20:22:00,39.6,11.9,29.98,WNW,302,4.1,28.1,32,0.00,,---,0.00,VWS V14.01,2013-04-03 00:22:00,
2013-04-02 20:27:00,40.0,12.8,29.99,WNW,292,5.2,28.1,32,0.00,,---,0.00,VWS V14.01,2013-04-03 00:27:00,
2013-04-02 20:32:00,39.5,12.1,29.99,West,277,8.0,28.1,32,0.00,,---,0.00,VWS V14.01,2013-04-03 00:32:00,
2013-04-02 20:37:00,39.7,12.6,29.99,WSW,252,0.0,28.1,32,0.00,,---,0.00,VWS V14.01,2013-04-03 00:37:00,
2013-04-02 20:42:00,39.1,12.2,30.00,NW,316,8.7,28.1,33,0.00,,---,0.00,VWS V14.01,2013-04-03 00:42:00,
2013-04-02 20:47:00,39.3,12.3,30.00,WNW,287,9.0,28.1,33,0.00,,---,0.00,VWS V14.01,2013-04-03 00:47:00,
2013-04-02 20:52:00,39.2,12.2,30.00,NW,312,6.5,28.1,33,0.00,,---,0.00,VWS V14.01,2013-04-03 00:52:00,
2013-04-02 20:57:00,39.1,12.4,30.01,West,271,1.2,28.1,33,0.00,,---,0.00,VWS V14.01,2013-04-03 00:57:00,
2013-04-02 21:02:00,39.2,12.5,30.00,WNW,287,3.2,28.1,33,0.00,,---,0.00,VWS V14.01,2013-04-03 01:02:00,
2013-04-02 21:07:00,39.0,12.7,30.00,North,359,8.9,28.1,34,0.00,,---,0.00,VWS V14.01,2013-04-03 01:07:00,
2013-04-02 21:12:00,38.6,12.7,30.01,SSW,208,1.4,28.1,34,0.00,,---,0.00,VWS V14.01,2013-04-03 01:12:00,
2013-04-02 21:17:00,38.7,13.0,30.01,NW,312,0.0,28.1,34,0.00,,---,0.00,VWS V14.01,2013-04-03 01:17:00,
2013-04-02 21:22:00,38.4,12.8,30.01,NW,308,4.8,28.1,34,0.00,,---,0.00,VWS V14.01,2013-04-03 01:22:00,
2013-04-02 21:27:00,38.3,12.9,30.01,West,264,2.4,28.1,35,0.00,,---,0.00,VWS V14.01,2013-04-03 01:27:00,
2013-04-02 21:32:00,38.4,13.0,30.02,NW,311,6.0,28.1,35,0.00,,---,0.00,VWS V14.01,2013-04-03 01:32:00,
2013-04-02 21:38:00,38.1,12.2,30.02,NW,304,9.3,28.1,34,0.00,,---,0.00,VWS V14.01,2013-04-03 01:38:00,
2013-04-02 21:43:00,37.8,12.0,30.02,West,274,4.5,28.1,34,0.00,,---,0.00,VWS V14.01,2013-04-03 01:43:00,
2013-04-02 21:48:00,38.7,12.9,30.02,South,186,2.4,28.1,34,0.00,,---,0.00,VWS V14.01,2013-04-03 01:48:00,
2013-04-02 21:53:00,38.4,12.8,30.02,WNW,297,3.3,28.1,34,0.00,,---,0.00,VWS V14.01,2013-04-03 01:53:00,
2013-04-02 21:58:00,38.4,13.0,30.02,SSW,201,3.2,28.1,35,0.00,,---,0.00,VWS V14.01,2013-04-03 01:58:00,
2013-04-02 22:03:00,38.3,12.9,30.02,WNW,288,5.7,28.1,35,0.00,,---,0.00,VWS V14.01,2013-04-03 02:03:00,
2013-04-02 22:08:00,38.0,12.9,30.02,West,276,8.1,28.1,35,0.00,,---,0.00,VWS V14.01,2013-04-03 02:08:00,
2013-04-02 22:13:00,38.0,13.0,30.03,NW,318,6.3,28.1,35,0.00,,---,0.00,VWS V14.01,2013-04-03 02:13:00,
2013-04-02 22:18:00,37.8,13.0,30.03,WNW,285,4.2,28.1,36,0.00,,---,0.00,VWS V14.01,2013-04-03 02:18:00,
2013-04-02 22:23:00,37.8,13.0,30.03,WNW,302,3.2,28.1,36,0.00,,---,0.00,VWS V14.01,2013-04-03 02:23:00,
2013-04-02 22:28:00,37.9,12.9,30.03,West,278,7.5,28.1,35,0.00,,---,0.00,VWS V14.01,2013-04-03 02:28:00,
2013-04-02 22:33:00,37.9,12.9,30.03,North,359,8.6,28.1,35,0.00,,---,0.00,VWS V14.01,2013-04-03 02:33:00,
2013-04-02 22:38:00,37.8,12.9,30.03,NW,319,11.6,28.1,36,0.00,,---,0.00,VWS V14.01,2013-04-03 02:38:00,
2013-04-02 22:43:00,38.0,13.2,30.03,NNW,332,6.5,28.1,36,0.00,,---,0.00,VWS V14.01,2013-04-03 02:43:00,
2013-04-02 22:48:00,37.9,13.1,30.03,NNW,335,6.6,28.1,36,0.00,,---,0.00,VWS V14.01,2013-04-03 02:48:00,
2013-04-02 22:53:00,38.2,13.7,30.03,NNW,333,4.5,28.1,36,0.00,,---,0.00,VWS V14.01,2013-04-03 02:53:00,
2013-04-02 22:58:00,37.8,13.6,30.03,NW,323,5.1,28.1,36,0.00,,---,0.00,VWS V14.01,2013-04-03 02:58:00,
2013-04-02 23:02:00,37.0,14.9,30.04,NNW,335,4.7,28.1,40,0.00,,---,0.00,VWS V14.01,2013-04-03 03:02:00,
2013-04-02 23:03:00,37.6,13.7,30.04,NW,326,7.5,28.1,37,0.00,,---,0.00,VWS V14.01,2013-04-03 03:03:00,
2013-04-02 23:08:00,37.5,13.7,30.04,NW,325,1.5,28.1,37,0.00,,---,0.00,VWS V14.01,2013-04-03 03:08:00,
2013-04-02 23:13:00,37.5,13.8,30.04,North,359,1.5,28.1,37,0.00,,---,0.00,VWS V14.01,2013-04-03 03:13:00,
2013-04-02 23:18:00,37.3,13.7,30.04,WNW,287,8.3,28.1,37,0.00,,---,0.00,VWS V14.01,2013-04-03 03:18:00,
2013-04-02 23:23:00,37.3,13.9,30.04,NW,326,6.1,28.1,38,0.00,,---,0.00,VWS V14.01,2013-04-03 03:23:00,
2013-04-02 23:28:00,37.8,14.4,30.04,NNW,333,3.5,28.1,38,0.00,,---,0.00,VWS V14.01,2013-04-03 03:28:00,
2013-04-02 23:34:00,37.2,14.4,30.04,NW,318,7.8,28.1,39,0.00,,---,0.00,VWS V14.01,2013-04-03 03:34:00,
2013-04-02 23:38:00,37.3,14.6,30.04,NW,325,7.1,28.1,39,0.00,,---,0.00,VWS V14.01,2013-04-03 03:38:00,
2013-04-02 23:43:00,37.3,14.8,30.04,NNW,332,8.8,28.1,39,0.00,,---,0.00,VWS V14.01,2013-04-03 03:43:00,
2013-04-02 23:49:00,37.5,15.2,30.04,WNW,298,6.5,28.1,40,0.00,,---,0.00,VWS V14.01,2013-04-03 03:49:00,
2013-04-02 23:54:00,36.9,14.6,30.04,NW,307,13.4,28.1,40,0.00,,---,0.00,VWS V14.01,2013-04-03 03:54:00,
2013-04-02 23:59:00,37.0,14.8,30.03,SW,214,4.8,28.1,40,0.00,,---,0.00,VWS V14.01,2013-04-03 03:59:00,